Maybole, United Kingdom
Current Conditions -  °F | °C
As of 11:20 AM on Friday 31 Oct 2014 (Local Time) from EGPK Reporting Station
Scattered Clouds Scattered Clouds  
Wind Chill: 63°   Ceiling: Unl
Heat Index: 63°   Visibility: 6mi
Dew Point: 57°   Wind: 18mph
Humidity: 82%   Direction: 170°S
Pressure: 29.71"   Gusts: 31mph
Location:  55.36°N, 4.68°W
Report Text: EGPK 311120Z 17016G27KT 9999 SCT025 17/14 Q1006
Loading
Personal Weather Stations






























Interactive Weather Map New forecast layout! Learn more

10-Day Weather Forecast

Advertisements
Track Severe Weather on mobile